createdAt,value
2022-08-05T00:04:58.052Z,29.09
2022-08-05T00:10:00.781Z,29.12
2022-08-05T00:15:56.309Z,29.02
2022-08-05T00:20:29.124Z,28.99
2022-08-05T00:25:41.599Z,28.99
2022-08-05T00:30:52.043Z,28.96
2022-08-05T00:36:15.935Z,28.94
2022-08-05T00:41:29.607Z,28.85
2022-08-05T00:47:02.080Z,28.84
2022-08-05T00:52:07.271Z,28.85
2022-08-05T00:57:10.116Z,28.78
2022-08-05T01:02:14.206Z,28.74
2022-08-05T01:07:19.404Z,28.71
2022-08-05T01:12:24.261Z,28.68
2022-08-05T01:17:43.888Z,28.68
2022-08-05T01:23:14.298Z,28.58
2022-08-05T01:28:26.583Z,28.53
2022-08-05T01:33:36.749Z,28.59
2022-08-05T01:38:41.938Z,28.52
2022-08-05T01:43:49.381Z,28.48
2022-08-05T01:48:55.603Z,28.42
2022-08-05T01:54:02.150Z,28.44
2022-08-05T01:59:10.806Z,28.41
2022-08-05T02:04:17.615Z,28.33
2022-08-05T02:09:20.963Z,28.37
2022-08-05T02:14:32.093Z,28.33
2022-08-05T02:19:46.996Z,28.19
2022-08-05T02:24:54.109Z,27.92
2022-08-05T02:30:00.779Z,28.00
2022-08-05T02:35:14.081Z,27.85
2022-08-05T02:40:18.199Z,27.86
2022-08-05T02:45:24.362Z,27.92
2022-08-05T02:50:29.677Z,27.93
2022-08-05T02:55:52.002Z,27.93
2022-08-05T03:01:02.220Z,27.95
2022-08-05T03:06:55.283Z,27.91
2022-08-05T03:11:55.599Z,27.89
2022-08-05T03:16:53.503Z,27.90
2022-08-05T03:21:56.322Z,27.86
2022-08-05T03:27:01.748Z,27.45
2022-08-05T03:32:07.632Z,27.23
2022-08-05T03:37:11.758Z,27.11
2022-08-05T03:42:17.041Z,26.85
2022-08-05T03:47:21.393Z,26.61
2022-08-05T03:52:39.072Z,26.36
2022-08-05T03:57:54.425Z,26.24
2022-08-05T04:03:02.788Z,26.24
2022-08-05T04:08:14.774Z,26.37
2022-08-05T04:13:49.798Z,26.41
2022-08-05T04:18:57.745Z,26.40
2022-08-05T04:24:05.028Z,26.42
2022-08-05T04:29:09.513Z,26.22
2022-08-05T04:34:31.434Z,26.28
2022-08-05T04:39:36.151Z,26.11
2022-08-05T04:44:39.092Z,25.92
2022-08-05T04:50:02.721Z,25.76
2022-08-05T04:55:14.482Z,25.45
2022-08-05T05:00:18.612Z,25.03
2022-08-05T05:05:29.383Z,24.93
2022-08-05T05:10:34.539Z,24.82
2022-08-05T05:15:56.594Z,24.72
2022-08-05T05:21:01.623Z,24.70
2022-08-05T05:26:04.438Z,24.68
2022-08-05T05:31:08.863Z,24.63
2022-08-05T05:36:13.169Z,24.59
2022-08-05T05:41:17.565Z,24.62
2022-08-05T05:46:21.816Z,24.60
2022-08-05T05:51:27.869Z,24.63
2022-08-05T05:56:34.706Z,24.63
2022-08-05T06:01:40.226Z,24.73
2022-08-05T06:06:47.556Z,24.82
2022-08-05T06:12:02.117Z,24.93
2022-08-05T06:17:22.129Z,25.08
2022-08-05T06:22:30.236Z,25.19
2022-08-05T06:28:12.584Z,25.24
2022-08-05T06:32:59.765Z,25.35
2022-08-05T06:38:11.237Z,25.48
2022-08-05T06:43:58.933Z,25.65
2022-08-05T06:48:54.619Z,25.73
2022-08-05T06:54:03.838Z,25.78
2022-08-05T06:59:08.430Z,25.85
2022-08-05T07:04:14.037Z,25.94
2022-08-05T07:09:18.371Z,25.99
2022-08-05T07:14:40.404Z,25.91
2022-08-05T07:25:22.718Z,25.98
2022-08-05T07:30:32.077Z,25.96
2022-08-05T07:36:03.388Z,26.01
2022-08-05T07:41:04.548Z,26.03
2022-08-05T07:46:25.080Z,26.03
2022-08-05T07:51:37.564Z,25.99
2022-08-05T07:57:02.320Z,26.03
2022-08-05T08:02:15.830Z,26.06
2022-08-05T08:07:22.764Z,26.06
2022-08-05T08:12:39.365Z,26.11
2022-08-05T08:17:52.714Z,26.14
2022-08-05T08:22:57.407Z,26.16
2022-08-05T08:28:01.588Z,26.20
2022-08-05T08:33:08.986Z,26.27
2022-08-05T08:38:16.867Z,26.29
2022-08-05T08:45:16.345Z,26.33
2022-08-05T08:50:05.720Z,26.30
2022-08-05T08:54:29.645Z,26.37
2022-08-05T08:59:34.345Z,26.39
2022-08-05T09:04:58.202Z,26.41
2022-08-05T09:10:01.441Z,26.54
2022-08-05T09:15:07.507Z,26.64
2022-08-05T09:20:12.743Z,26.72
2022-08-05T09:25:59.862Z,26.80
2022-08-05T09:31:22.732Z,26.93
2022-08-05T09:36:54.821Z,27.04
2022-08-05T09:42:01.137Z,27.14
2022-08-05T09:47:15.764Z,27.18
2022-08-05T09:52:21.898Z,27.21
2022-08-05T09:57:39.408Z,27.26
2022-08-05T10:02:46.091Z,27.34
2022-08-05T10:08:35.172Z,27.42
2022-08-05T10:13:31.532Z,27.44
2022-08-05T10:18:35.992Z,27.49
2022-08-05T10:23:59.297Z,27.51
2022-08-05T10:29:02.754Z,27.56
2022-08-05T10:34:08.326Z,27.62
2022-08-05T10:39:25.199Z,27.66
2022-08-05T10:44:39.989Z,27.68
2022-08-05T10:50:35.365Z,27.74
2022-08-05T10:55:30.527Z,27.77
2022-08-05T11:00:47.542Z,27.83
2022-08-05T11:06:14.674Z,27.87
2022-08-05T11:11:52.684Z,27.88
2022-08-05T11:18:00.151Z,27.90
2022-08-05T11:23:01.991Z,27.92
2022-08-05T11:28:43.145Z,27.97
2022-08-05T11:33:55.007Z,28.03
2022-08-05T11:38:59.714Z,28.12
2022-08-05T11:44:08.375Z,28.18
2022-08-05T11:49:14.567Z,28.23
2022-08-05T11:54:33.457Z,28.30
2022-08-05T11:59:41.237Z,28.40
2022-08-05T12:04:53.501Z,28.46
2022-08-05T12:10:09.594Z,28.47
2022-08-05T12:15:20.676Z,28.52
2022-08-05T12:20:41.378Z,28.55
2022-08-05T12:25:53.450Z,28.60
2022-08-05T12:30:57.700Z,28.61
2022-08-05T12:36:08.122Z,28.65
2022-08-05T12:41:14.255Z,28.70
2022-08-05T12:46:29.575Z,28.75
2022-08-05T12:52:13.049Z,28.82
2022-08-05T12:56:59.075Z,28.84
2022-08-05T13:02:07.422Z,28.84
2022-08-05T13:07:16.028Z,28.90
2022-08-05T13:12:23.349Z,28.92
2022-08-05T13:17:41.397Z,28.95
2022-08-05T13:22:51.583Z,28.99
2022-08-05T13:27:57.365Z,29.00
2022-08-05T13:33:01.089Z,29.05
2022-08-05T13:38:04.953Z,29.07
2022-08-05T13:43:12.275Z,29.09
2022-08-05T13:48:58.613Z,29.13
2022-08-05T13:53:47.904Z,29.20
2022-08-05T13:58:53.409Z,29.33
2022-08-05T14:04:10.647Z,29.38
2022-08-05T14:09:13.421Z,29.39
2022-08-05T14:14:23.318Z,29.38
2022-08-05T14:19:28.881Z,29.39
2022-08-05T14:24:31.663Z,29.39
2022-08-05T14:29:36.650Z,29.46
2022-08-05T14:34:39.432Z,29.48
2022-08-05T14:39:50.191Z,29.49
2022-08-05T14:45:01.285Z,29.52
2022-08-05T14:50:17.147Z,29.58
2022-08-05T14:55:21.649Z,29.58
2022-08-05T15:00:29.421Z,29.57
2022-08-05T15:06:07.910Z,29.57
2022-08-05T15:10:55.455Z,29.61
2022-08-05T15:15:59.887Z,29.62
2022-08-05T15:21:07.658Z,29.70
2022-08-05T15:26:10.688Z,29.63
2022-08-05T15:31:15.159Z,29.67
2022-08-05T15:36:24.568Z,29.68
2022-08-05T15:41:57.231Z,29.72
2022-08-05T15:46:52.991Z,29.71
2022-08-05T15:52:10.343Z,29.76
2022-08-05T15:57:21.782Z,29.82
2022-08-05T16:02:27.717Z,29.85
2022-08-05T16:07:32.111Z,29.89
2022-08-05T16:12:35.082Z,29.82
2022-08-05T16:17:39.204Z,29.89
2022-08-05T16:22:41.934Z,29.90
2022-08-05T16:27:47.082Z,29.95
2022-08-05T16:33:04.801Z,29.99
2022-08-05T16:38:18.679Z,29.99
2022-08-05T16:43:31.322Z,29.99
2022-08-05T16:48:35.982Z,29.96
2022-08-05T16:54:04.334Z,29.94
2022-08-05T16:59:08.287Z,29.94
2022-08-05T17:04:12.730Z,29.97
2022-08-05T17:09:17.940Z,29.98
2022-08-05T17:14:22.529Z,29.93
2022-08-05T17:19:38.935Z,29.98
2022-08-05T17:24:46.391Z,29.92
2022-08-05T17:30:02.545Z,29.96
2022-08-05T17:35:08.174Z,29.96
2022-08-05T17:40:17.926Z,29.96
2022-08-05T17:45:22.411Z,30.00
2022-08-05T17:50:30.330Z,29.99
2022-08-05T17:55:39.588Z,29.98
2022-08-05T18:00:47.781Z,30.08
2022-08-05T18:05:55.320Z,30.19
2022-08-05T18:11:04.795Z,30.20
2022-08-05T18:16:09.572Z,30.23
2022-08-05T18:21:21.090Z,30.11
2022-08-05T18:26:27.831Z,30.21
2022-08-05T18:31:35.436Z,30.10
2022-08-05T18:36:41.368Z,30.02
2022-08-05T18:41:59.497Z,30.03
2022-08-05T18:47:05.045Z,29.92
2022-08-05T18:52:33.037Z,29.82
2022-08-05T18:57:52.473Z,29.65
2022-08-05T19:02:56.493Z,29.11
2022-08-05T19:08:02.736Z,28.80
2022-08-05T19:13:05.774Z,28.32
2022-08-05T19:18:13.526Z,28.06
2022-08-05T19:24:06.757Z,28.16
2022-08-05T19:28:47.860Z,28.29
2022-08-05T19:33:56.474Z,28.26
2022-08-05T19:39:01.954Z,28.41
2022-08-05T19:44:13.651Z,28.38
2022-08-05T19:49:17.804Z,28.33
2022-08-05T19:54:31.295Z,28.43
2022-08-05T19:59:56.073Z,28.39
2022-08-05T20:04:58.359Z,28.56
2022-08-05T20:10:04.862Z,28.53
2022-08-05T20:15:15.835Z,28.59
2022-08-05T20:20:38.978Z,28.64
2022-08-05T20:25:43.119Z,28.67
2022-08-05T20:30:45.832Z,28.75
2022-08-05T20:35:50.703Z,28.71
2022-08-05T20:40:55.453Z,28.48
2022-08-05T20:46:00.338Z,28.18
2022-08-05T20:51:08.078Z,28.22
2022-08-05T20:56:12.524Z,27.49
2022-08-05T21:01:15.285Z,27.08
2022-08-05T21:06:28.591Z,27.32
2022-08-05T21:12:07.479Z,27.55
2022-08-05T21:16:56.955Z,27.53
2022-08-05T21:21:59.719Z,27.77
2022-08-05T21:27:04.217Z,27.91
2022-08-05T21:32:09.846Z,27.63
2022-08-05T21:37:19.952Z,27.26
2022-08-05T21:42:41.195Z,26.99
2022-08-05T21:47:57.111Z,26.93
2022-08-05T21:53:04.599Z,27.19
2022-08-05T21:58:12.707Z,27.47
2022-08-05T22:03:15.495Z,27.63
2022-08-05T22:08:24.091Z,27.74
2022-08-05T22:14:05.679Z,27.57
2022-08-05T22:18:58.742Z,27.56
2022-08-05T22:24:40.910Z,27.64
2022-08-05T22:29:43.680Z,27.72
2022-08-05T22:34:48.650Z,27.78
2022-08-05T22:39:51.523Z,27.80
2022-08-05T22:44:59.541Z,27.88
2022-08-05T22:50:19.732Z,27.91
2022-08-05T22:55:26.107Z,27.72
2022-08-05T23:00:30.342Z,27.76
2022-08-05T23:05:36.167Z,27.88
2022-08-05T23:10:39.305Z,27.93
2022-08-05T23:15:43.505Z,27.91
2022-08-05T23:20:53.108Z,27.93
2022-08-05T23:25:56.687Z,27.91
2022-08-05T23:31:14.818Z,27.90
2022-08-05T23:36:18.800Z,27.67
2022-08-05T23:41:21.996Z,27.55
2022-08-05T23:46:28.130Z,27.30
2022-08-05T23:51:52.391Z,27.22
2022-08-05T23:57:03.226Z,27.09
